createdAt,value
2023-05-17T00:02:10.539Z,100.00
2023-05-17T00:05:13.261Z,100.00
2023-05-17T00:08:15.940Z,100.00
2023-05-17T00:11:18.635Z,100.00
2023-05-17T00:14:21.094Z,100.00
2023-05-17T00:17:23.764Z,100.00
2023-05-17T00:20:26.365Z,100.00
2023-05-17T00:23:29.368Z,100.00
2023-05-17T00:26:33.731Z,100.00
2023-05-17T00:29:36.515Z,100.00
2023-05-17T00:32:39.229Z,100.00
2023-05-17T00:35:42.040Z,100.00
2023-05-17T00:38:44.411Z,100.00
2023-05-17T00:41:47.108Z,100.00
2023-05-17T00:44:49.465Z,100.00
2023-05-17T00:47:52.749Z,100.00
2023-05-17T00:50:56.487Z,100.00
2023-05-17T00:53:59.247Z,100.00
2023-05-17T00:57:02.303Z,100.00
2023-05-17T01:00:05.698Z,100.00
2023-05-17T01:03:08.254Z,100.00
2023-05-17T01:06:11.052Z,100.00
2023-05-17T01:09:14.425Z,100.00
2023-05-17T01:12:40.652Z,100.00
2023-05-17T01:15:48.801Z,100.00
2023-05-17T01:19:23.777Z,100.00
2023-05-17T01:22:36.792Z,100.00
2023-05-17T01:25:48.475Z,100.00
2023-05-17T01:28:54.321Z,100.00
2023-05-17T01:32:00.125Z,100.00
2023-05-17T01:35:05.542Z,100.00
2023-05-17T01:38:09.487Z,100.00
2023-05-17T01:41:30.801Z,100.00
2023-05-17T01:44:35.174Z,100.00
2023-05-17T01:47:48.312Z,100.00
2023-05-17T01:50:54.949Z,100.00
2023-05-17T01:54:11.344Z,100.00
2023-05-17T01:57:15.891Z,100.00
2023-05-17T02:00:19.648Z,100.00
2023-05-17T02:03:22.738Z,100.00
2023-05-17T02:06:25.676Z,100.00
2023-05-17T02:09:28.523Z,100.00
2023-05-17T02:12:31.023Z,100.00
2023-05-17T02:15:33.699Z,100.00
2023-05-17T02:18:37.765Z,100.00
2023-05-17T02:21:40.749Z,100.00
2023-05-17T02:24:43.157Z,100.00
2023-05-17T02:27:47.514Z,100.00
2023-05-17T02:30:49.870Z,100.00
2023-05-17T02:33:55.998Z,100.00
2023-05-17T02:36:58.559Z,100.00
2023-05-17T02:40:01.236Z,100.00
2023-05-17T02:43:04.088Z,100.00
2023-05-17T02:46:11.718Z,100.00
2023-05-17T02:49:14.215Z,100.00
2023-05-17T02:52:17.319Z,100.00
2023-05-17T02:55:20.046Z,100.00
2023-05-17T02:58:22.819Z,100.00
2023-05-17T03:01:25.186Z,100.00
2023-05-17T03:04:28.143Z,100.00
2023-05-17T03:07:31.050Z,100.00
2023-05-17T03:10:34.001Z,100.00
2023-05-17T03:13:36.672Z,100.00
2023-05-17T03:16:39.726Z,100.00
2023-05-17T03:19:42.305Z,100.00
2023-05-17T03:22:45.050Z,100.00
2023-05-17T03:25:47.420Z,100.00
2023-05-17T03:28:50.487Z,100.00
2023-05-17T03:31:53.559Z,100.00
2023-05-17T03:34:56.501Z,100.00
2023-05-17T03:37:59.317Z,100.00
2023-05-17T03:41:02.244Z,100.00
2023-05-17T03:44:05.015Z,100.00
2023-05-17T03:47:07.772Z,100.00
2023-05-17T03:50:10.627Z,100.00
2023-05-17T03:53:13.592Z,100.00
2023-05-17T03:56:18.105Z,100.00
2023-05-17T03:59:20.770Z,100.00
2023-05-17T04:02:23.240Z,100.00
2023-05-17T04:05:26.881Z,100.00
2023-05-17T04:08:32.155Z,100.00
2023-05-17T04:11:34.828Z,100.00
2023-05-17T04:14:38.639Z,100.00
2023-05-17T04:17:41.352Z,100.00
2023-05-17T04:20:44.260Z,100.00
2023-05-17T04:23:46.906Z,100.00
2023-05-17T04:26:50.998Z,100.00
2023-05-17T04:29:54.411Z,100.00
2023-05-17T04:32:56.914Z,100.00
2023-05-17T04:35:59.771Z,100.00
2023-05-17T04:39:03.625Z,100.00
2023-05-17T04:42:06.640Z,100.00
2023-05-17T04:45:10.444Z,100.00
2023-05-17T04:48:13.297Z,100.00
2023-05-17T04:51:15.694Z,100.00
2023-05-17T04:54:18.544Z,100.00
2023-05-17T04:57:21.807Z,100.00
2023-05-17T05:00:25.504Z,100.00
2023-05-17T05:03:28.970Z,100.00
2023-05-17T05:06:32.082Z,100.00
2023-05-17T05:09:34.583Z,100.00
2023-05-17T05:12:38.213Z,100.00
2023-05-17T05:15:40.825Z,100.00
2023-05-17T05:18:43.924Z,100.00
2023-05-17T05:21:46.511Z,100.00
2023-05-17T05:24:49.823Z,100.00
2023-05-17T05:27:52.785Z,100.00
2023-05-17T05:31:00.361Z,100.00
2023-05-17T05:34:03.407Z,100.00
2023-05-17T05:37:07.236Z,100.00
2023-05-17T05:40:11.147Z,100.00
2023-05-17T05:43:15.869Z,100.00
2023-05-17T05:46:18.584Z,100.00
2023-05-17T05:49:21.334Z,100.00
2023-05-17T05:52:23.822Z,100.00
2023-05-17T05:55:28.793Z,100.00
2023-05-17T05:58:32.018Z,100.00
2023-05-17T06:01:35.714Z,100.00
2023-05-17T06:04:45.313Z,100.00
2023-05-17T06:07:48.176Z,100.00
2023-05-17T06:10:51.513Z,100.00
2023-05-17T06:13:53.902Z,100.00
2023-05-17T06:16:56.633Z,100.00
2023-05-17T06:19:59.079Z,99.91
2023-05-17T06:23:02.094Z,99.17
2023-05-17T06:26:04.546Z,99.09
2023-05-17T06:29:07.132Z,99.02
2023-05-17T06:32:09.504Z,98.96
2023-05-17T06:35:12.948Z,99.44
2023-05-17T06:38:15.376Z,98.75
2023-05-17T06:41:18.149Z,98.49
2023-05-17T06:44:20.680Z,98.24
2023-05-17T06:47:23.401Z,98.36
2023-05-17T06:50:29.560Z,98.73
2023-05-17T06:53:32.845Z,98.50
2023-05-17T06:56:35.617Z,97.78
2023-05-17T06:59:38.659Z,97.12
2023-05-17T07:02:41.291Z,96.88
2023-05-17T07:05:44.943Z,97.75
2023-05-17T07:08:47.321Z,97.14
2023-05-17T07:11:50.144Z,97.17
2023-05-17T07:14:52.534Z,97.32
2023-05-17T07:17:55.337Z,97.55
2023-05-17T07:20:57.982Z,97.73
2023-05-17T07:24:00.873Z,97.58
2023-05-17T07:27:03.331Z,97.08
2023-05-17T07:30:07.304Z,97.18
2023-05-17T07:33:10.077Z,97.31
2023-05-17T07:36:15.199Z,96.83
2023-05-17T07:39:17.689Z,96.28
2023-05-17T07:42:20.528Z,96.12
2023-05-17T07:45:23.106Z,96.34
2023-05-17T07:48:26.685Z,95.98
2023-05-17T07:51:29.269Z,95.61
2023-05-17T07:54:35.097Z,95.65
2023-05-17T07:57:37.654Z,96.00
2023-05-17T08:00:42.542Z,96.17
2023-05-17T08:03:48.267Z,96.53
2023-05-17T08:06:51.575Z,96.73
2023-05-17T08:09:54.297Z,96.78
2023-05-17T08:12:56.719Z,97.06
2023-05-17T08:16:12.875Z,96.88
2023-05-17T08:19:17.037Z,96.57
2023-05-17T08:22:19.973Z,97.75
2023-05-17T08:25:22.563Z,96.75
2023-05-17T08:28:25.435Z,97.02
2023-05-17T08:31:28.144Z,97.71
2023-05-17T08:34:30.846Z,97.64
2023-05-17T08:37:33.712Z,97.42
2023-05-17T08:40:37.117Z,97.60
2023-05-17T08:43:40.385Z,97.63
2023-05-17T08:46:44.822Z,98.30
2023-05-17T08:49:48.333Z,98.43
2023-05-17T08:52:51.330Z,98.13
2023-05-17T08:56:00.823Z,97.76
2023-05-17T08:59:06.484Z,97.33
2023-05-17T09:02:10.279Z,96.97
2023-05-17T09:05:14.290Z,97.16
2023-05-17T09:08:18.188Z,98.44
2023-05-17T09:11:29.722Z,97.33
2023-05-17T09:14:36.685Z,96.88
2023-05-17T09:17:41.755Z,96.63
2023-05-17T09:20:51.847Z,95.75
2023-05-17T09:24:05.498Z,95.90
2023-05-17T09:27:14.460Z,96.57
2023-05-17T09:30:17.375Z,95.41
2023-05-17T09:33:21.739Z,94.57
2023-05-17T09:36:24.502Z,94.99
2023-05-17T09:39:27.060Z,94.50
2023-05-17T09:42:32.859Z,94.24
2023-05-17T09:45:36.259Z,93.81
2023-05-17T09:48:39.403Z,92.29
2023-05-17T09:51:47.503Z,92.65
2023-05-17T09:55:01.826Z,90.49
2023-05-17T09:58:04.596Z,90.13
2023-05-17T10:01:09.171Z,90.19
2023-05-17T10:04:12.910Z,90.07
2023-05-17T10:07:19.751Z,89.87
2023-05-17T10:10:23.671Z,89.51
2023-05-17T10:13:33.748Z,88.44
2023-05-17T10:16:39.481Z,86.83
2023-05-17T10:19:42.559Z,85.15
2023-05-17T10:22:47.041Z,85.01
2023-05-17T10:25:50.940Z,81.91
2023-05-17T10:29:01.469Z,81.67
2023-05-17T10:32:07.630Z,80.24
2023-05-17T10:35:12.473Z,80.75
2023-05-17T10:38:15.087Z,81.85
2023-05-17T10:41:20.002Z,79.42
2023-05-17T10:44:22.974Z,77.45
2023-05-17T10:47:32.873Z,77.37
2023-05-17T10:50:54.062Z,77.27
2023-05-17T10:54:11.994Z,76.35
2023-05-17T10:57:49.115Z,76.15
2023-05-17T11:00:55.984Z,75.55
2023-05-17T11:03:58.526Z,77.67
2023-05-17T11:07:20.334Z,75.28
2023-05-17T11:10:22.931Z,76.28
2023-05-17T11:13:27.461Z,74.83
2023-05-17T11:16:37.481Z,74.79
2023-05-17T11:19:49.971Z,74.79
2023-05-17T11:23:06.887Z,75.05
2023-05-17T11:26:18.815Z,74.76
2023-05-17T11:29:21.980Z,73.11
2023-05-17T11:32:31.975Z,71.22
2023-05-17T11:35:39.256Z,68.45
2023-05-17T11:38:41.937Z,66.59
2023-05-17T11:41:52.906Z,65.23
2023-05-17T11:44:58.337Z,63.84
2023-05-17T11:48:01.140Z,63.94
2023-05-17T11:51:04.717Z,64.38
2023-05-17T11:54:07.423Z,64.47
2023-05-17T11:57:12.870Z,65.16
2023-05-17T12:00:16.718Z,65.15
2023-05-17T12:03:22.344Z,63.96
2023-05-17T12:06:25.654Z,63.36
2023-05-17T12:09:28.442Z,63.67
2023-05-17T12:12:30.840Z,63.92
2023-05-17T12:15:33.760Z,63.36
2023-05-17T12:18:37.223Z,63.63
2023-05-17T12:21:40.057Z,63.63
2023-05-17T12:24:43.149Z,64.29
2023-05-17T12:27:45.723Z,66.43
2023-05-17T12:30:53.818Z,64.99
2023-05-17T12:33:59.261Z,65.51
2023-05-17T12:37:03.081Z,65.50
2023-05-17T12:40:07.069Z,67.38
2023-05-17T12:43:09.691Z,66.07
2023-05-17T12:46:14.749Z,65.96
2023-05-17T12:49:17.522Z,65.58
2023-05-17T12:52:20.306Z,65.49
2023-05-17T12:55:22.818Z,64.69
2023-05-17T12:58:25.695Z,65.21
2023-05-17T13:01:33.384Z,65.60
2023-05-17T13:04:37.893Z,66.28
2023-05-17T13:07:40.482Z,65.14
2023-05-17T13:10:43.361Z,65.17
2023-05-17T13:13:46.216Z,65.89
2023-05-17T13:16:48.917Z,66.19
2023-05-17T13:19:51.774Z,67.47
2023-05-17T13:22:54.613Z,65.54
2023-05-17T13:25:57.115Z,65.06
2023-05-17T13:28:59.809Z,65.27
2023-05-17T13:32:02.733Z,64.78
2023-05-17T13:35:06.066Z,63.17
2023-05-17T13:38:08.458Z,63.29
2023-05-17T13:41:11.164Z,63.50
2023-05-17T13:44:13.584Z,63.26
2023-05-17T13:47:16.736Z,62.78
2023-05-17T13:50:19.631Z,63.10
2023-05-17T13:53:22.717Z,62.96
2023-05-17T13:56:25.130Z,63.18
2023-05-17T13:59:28.486Z,62.46
2023-05-17T14:02:33.833Z,62.57
2023-05-17T14:05:38.789Z,63.58
2023-05-17T14:08:44.960Z,64.13
2023-05-17T14:11:48.823Z,64.47
2023-05-17T14:14:51.785Z,64.16
2023-05-17T14:17:56.501Z,63.64
2023-05-17T14:21:01.831Z,63.39
2023-05-17T14:24:04.926Z,63.10
2023-05-17T14:27:07.879Z,63.30
2023-05-17T14:30:13.711Z,64.66
2023-05-17T14:33:19.409Z,63.58
2023-05-17T14:36:22.247Z,64.91
2023-05-17T14:39:24.692Z,66.00
2023-05-17T14:42:27.707Z,65.53
2023-05-17T14:45:30.110Z,65.69
2023-05-17T14:48:33.983Z,65.12
2023-05-17T14:51:36.547Z,64.82
2023-05-17T14:54:44.272Z,65.43
2023-05-17T14:57:46.742Z,65.06
2023-05-17T15:01:05.569Z,64.92
2023-05-17T15:04:10.348Z,65.13
2023-05-17T15:07:13.915Z,66.15
2023-05-17T15:10:17.486Z,66.52
2023-05-17T15:13:20.546Z,65.39
2023-05-17T15:16:23.559Z,65.17
2023-05-17T15:19:26.617Z,65.68
2023-05-17T15:22:29.478Z,65.66
2023-05-17T15:25:32.361Z,65.64
2023-05-17T15:28:37.573Z,66.23
2023-05-17T15:31:40.259Z,66.77
2023-05-17T15:34:42.739Z,65.70
2023-05-17T15:37:45.901Z,65.63
2023-05-17T15:40:48.722Z,67.71
2023-05-17T15:43:51.395Z,66.85
2023-05-17T15:46:53.887Z,66.48
2023-05-17T15:49:58.211Z,67.00
2023-05-17T15:53:02.476Z,66.36
2023-05-17T15:56:05.778Z,68.36
2023-05-17T15:59:08.183Z,67.70
2023-05-17T16:02:11.166Z,68.35
2023-05-17T16:05:13.847Z,68.00
2023-05-17T16:08:16.547Z,68.55
2023-05-17T16:11:19.348Z,69.30
2023-05-17T16:14:21.693Z,69.66
2023-05-17T16:17:24.485Z,70.10
2023-05-17T16:20:28.977Z,71.23
2023-05-17T16:23:31.818Z,73.00
2023-05-17T16:26:35.990Z,73.60
2023-05-17T16:29:40.300Z,73.87
2023-05-17T16:32:43.794Z,73.21
2023-05-17T16:35:48.690Z,72.13
2023-05-17T16:38:52.561Z,76.70
2023-05-17T16:41:55.666Z,76.32
2023-05-17T16:44:58.075Z,73.96
2023-05-17T16:48:00.980Z,74.48
2023-05-17T16:51:03.869Z,75.29
2023-05-17T16:54:07.158Z,77.78
2023-05-17T16:57:09.893Z,79.48
2023-05-17T17:00:13.275Z,75.07
2023-05-17T17:03:16.179Z,74.27
2023-05-17T17:06:19.209Z,75.25
2023-05-17T17:09:21.756Z,77.57
2023-05-17T17:12:26.066Z,75.43
2023-05-17T17:15:29.036Z,74.53
2023-05-17T17:18:31.753Z,76.66
2023-05-17T17:21:38.568Z,75.20
2023-05-17T17:24:41.297Z,75.30
2023-05-17T17:27:43.712Z,76.39
2023-05-17T17:30:47.625Z,75.06
2023-05-17T17:33:50.817Z,76.97
2023-05-17T17:36:54.837Z,76.66
2023-05-17T17:39:57.371Z,75.34
2023-05-17T17:42:59.978Z,75.52
2023-05-17T17:46:02.643Z,75.71
2023-05-17T17:49:05.566Z,77.08
2023-05-17T17:52:08.120Z,77.30
2023-05-17T17:55:11.577Z,77.15
2023-05-17T17:58:14.040Z,76.37
2023-05-17T18:01:17.104Z,76.21
2023-05-17T18:04:22.932Z,77.16
2023-05-17T18:07:25.472Z,76.81
2023-05-17T18:10:28.373Z,78.77
2023-05-17T18:13:31.053Z,78.75
2023-05-17T18:16:34.213Z,77.03
2023-05-17T18:19:36.717Z,77.06
2023-05-17T18:22:41.245Z,78.59
2023-05-17T18:25:43.719Z,79.02
2023-05-17T18:28:46.418Z,78.10
2023-05-17T18:31:48.950Z,78.83
2023-05-17T18:34:51.768Z,78.24
2023-05-17T18:37:54.149Z,77.64
2023-05-17T18:40:56.863Z,79.37
2023-05-17T18:44:01.967Z,79.73
2023-05-17T18:47:05.050Z,78.05
2023-05-17T18:50:08.056Z,77.55
2023-05-17T18:53:12.882Z,77.14
2023-05-17T18:56:22.530Z,77.82
2023-05-17T18:59:25.801Z,78.18
2023-05-17T19:02:28.406Z,78.47
2023-05-17T19:05:31.128Z,79.25
2023-05-17T19:08:33.540Z,78.17
2023-05-17T19:11:36.386Z,77.62
2023-05-17T19:14:40.325Z,78.10
2023-05-17T19:17:43.320Z,77.70
2023-05-17T19:20:45.873Z,78.18
2023-05-17T19:23:49.076Z,80.45
2023-05-17T19:26:51.487Z,79.75
2023-05-17T19:29:54.258Z,79.01
2023-05-17T19:32:56.697Z,77.85
2023-05-17T19:35:59.671Z,77.49
2023-05-17T19:39:02.074Z,80.65
2023-05-17T19:42:05.089Z,77.62
2023-05-17T19:45:11.034Z,77.13
2023-05-17T19:48:13.704Z,77.09
2023-05-17T19:51:16.383Z,77.06
2023-05-17T19:54:21.249Z,76.99
2023-05-17T19:57:23.732Z,77.24
2023-05-17T20:00:26.647Z,79.07
2023-05-17T20:03:29.403Z,79.70
2023-05-17T20:06:32.059Z,77.62
2023-05-17T20:09:34.930Z,77.92
2023-05-17T20:12:38.143Z,77.82
2023-05-17T20:15:41.037Z,77.61
2023-05-17T20:18:44.942Z,77.51
2023-05-17T20:21:48.128Z,78.27
2023-05-17T20:24:50.708Z,77.73
2023-05-17T20:27:53.544Z,77.57
2023-05-17T20:30:56.167Z,77.32
2023-05-17T20:33:59.340Z,78.36
2023-05-17T20:37:01.715Z,76.95
2023-05-17T20:40:09.023Z,76.89
2023-05-17T20:43:11.530Z,77.04
2023-05-17T20:46:14.557Z,76.98
2023-05-17T20:49:17.126Z,78.58
2023-05-17T20:52:27.770Z,77.20
2023-05-17T20:55:40.228Z,78.06
2023-05-17T20:58:42.900Z,77.10
2023-05-17T21:01:45.240Z,77.28
2023-05-17T21:04:47.921Z,77.78
2023-05-17T21:07:50.541Z,77.35
2023-05-17T21:10:53.304Z,77.86
2023-05-17T21:13:56.092Z,76.45
2023-05-17T21:16:58.738Z,76.42
2023-05-17T21:20:01.069Z,76.42
2023-05-17T21:23:03.767Z,76.59
2023-05-17T21:26:07.602Z,76.73
2023-05-17T21:29:10.422Z,77.16
2023-05-17T21:32:12.817Z,77.29
2023-05-17T21:35:15.782Z,78.22
2023-05-17T21:38:18.174Z,78.39
2023-05-17T21:41:21.638Z,79.26
2023-05-17T21:44:24.076Z,76.67
2023-05-17T21:47:26.889Z,77.23
2023-05-17T21:50:29.423Z,77.47
2023-05-17T21:53:32.191Z,77.03
2023-05-17T21:56:34.599Z,77.85
2023-05-17T21:59:37.267Z,76.32
2023-05-17T22:02:40.949Z,76.24
2023-05-17T22:05:43.778Z,76.85
2023-05-17T22:08:46.598Z,77.10
2023-05-17T22:11:49.376Z,78.32
2023-05-17T22:14:56.164Z,78.57
2023-05-17T22:17:59.178Z,77.64
2023-05-17T22:21:01.591Z,77.13
2023-05-17T22:24:04.352Z,77.20
2023-05-17T22:27:06.774Z,76.88
2023-05-17T22:30:09.676Z,78.06
2023-05-17T22:33:13.122Z,78.24
2023-05-17T22:36:17.189Z,78.09
2023-05-17T22:39:19.952Z,78.90
2023-05-17T22:42:22.639Z,80.26
2023-05-17T22:45:30.087Z,78.82
2023-05-17T22:48:32.928Z,79.26
2023-05-17T22:51:35.650Z,79.67
2023-05-17T22:54:38.794Z,79.85
2023-05-17T22:57:41.169Z,79.62
2023-05-17T23:00:44.361Z,80.30
2023-05-17T23:03:46.738Z,81.21
2023-05-17T23:06:49.473Z,80.14
2023-05-17T23:09:53.782Z,80.83
2023-05-17T23:12:58.158Z,81.00
2023-05-17T23:16:00.863Z,80.04
2023-05-17T23:19:04.389Z,79.92
2023-05-17T23:22:06.821Z,79.66
2023-05-17T23:25:10.188Z,80.58
2023-05-17T23:28:14.529Z,79.64
2023-05-17T23:31:17.668Z,79.69
2023-05-17T23:34:20.211Z,80.27
2023-05-17T23:37:22.871Z,80.17
2023-05-17T23:40:25.231Z,79.83
2023-05-17T23:43:27.826Z,80.21
2023-05-17T23:46:30.397Z,80.40
2023-05-17T23:49:33.103Z,80.79
2023-05-17T23:52:39.045Z,81.08
2023-05-17T23:55:41.740Z,82.37
2023-05-17T23:58:45.517Z,83.53
